sensor_id;sensor_type;location;lat;lon;timestamp;temperature;humidity
25732;DHT22;13585;50.864;4.406;2023-08-06T00:00:23;25.30;56.60
25732;DHT22;13585;50.864;4.406;2023-08-06T00:02:50;25.30;56.60
25732;DHT22;13585;50.864;4.406;2023-08-06T00:05:16;25.30;56.60
25732;DHT22;13585;50.864;4.406;2023-08-06T00:07:48;25.30;56.50
25732;DHT22;13585;50.864;4.406;2023-08-06T00:10:14;25.30;56.50
25732;DHT22;13585;50.864;4.406;2023-08-06T00:12:40;25.30;56.50
25732;DHT22;13585;50.864;4.406;2023-08-06T00:15:06;25.40;56.60
25732;DHT22;13585;50.864;4.406;2023-08-06T00:17:33;25.40;56.70
25732;DHT22;13585;50.864;4.406;2023-08-06T00:20:00;25.30;56.60
25732;DHT22;13585;50.864;4.406;2023-08-06T00:22:33;25.30;57.20
25732;DHT22;13585;50.864;4.406;2023-08-06T00:24:59;25.40;56.60
25732;DHT22;13585;50.864;4.406;2023-08-06T00:27:25;25.40;56.60
25732;DHT22;13585;50.864;4.406;2023-08-06T00:29:50;25.40;56.60
25732;DHT22;13585;50.864;4.406;2023-08-06T00:32:16;25.40;56.60
25732;DHT22;13585;50.864;4.406;2023-08-06T00:34:42;25.30;56.60
25732;DHT22;13585;50.864;4.406;2023-08-06T00:37:08;25.30;56.60
25732;DHT22;13585;50.864;4.406;2023-08-06T00:39:33;25.30;56.70
25732;DHT22;13585;50.864;4.406;2023-08-06T00:41:59;25.30;56.60
25732;DHT22;13585;50.864;4.406;2023-08-06T00:44:24;25.40;56.70
25732;DHT22;13585;50.864;4.406;2023-08-06T00:46:50;25.40;56.70
25732;DHT22;13585;50.864;4.406;2023-08-06T00:49:16;25.30;56.60
25732;DHT22;13585;50.864;4.406;2023-08-06T00:51:42;25.30;56.70
25732;DHT22;13585;50.864;4.406;2023-08-06T00:54:09;25.30;56.70
25732;DHT22;13585;50.864;4.406;2023-08-06T00:56:35;25.30;56.70
25732;DHT22;13585;50.864;4.406;2023-08-06T00:59:01;25.30;56.70
25732;DHT22;13585;50.864;4.406;2023-08-06T01:01:27;25.30;56.70
25732;DHT22;13585;50.864;4.406;2023-08-06T01:03:54;25.30;56.70
25732;DHT22;13585;50.864;4.406;2023-08-06T01:06:31;25.30;56.70
25732;DHT22;13585;50.864;4.406;2023-08-06T01:09:10;25.30;56.70
25732;DHT22;13585;50.864;4.406;2023-08-06T01:14:18;25.30;56.60
25732;DHT22;13585;50.864;4.406;2023-08-06T01:16:50;25.30;56.70
25732;DHT22;13585;50.864;4.406;2023-08-06T01:19:19;25.30;56.60
25732;DHT22;13585;50.864;4.406;2023-08-06T01:21:45;25.30;56.60
25732;DHT22;13585;50.864;4.406;2023-08-06T01:24:12;25.30;56.70
25732;DHT22;13585;50.864;4.406;2023-08-06T01:26:59;25.30;56.70
25732;DHT22;13585;50.864;4.406;2023-08-06T01:29:48;25.30;56.70
25732;DHT22;13585;50.864;4.406;2023-08-06T01:32:19;25.30;56.70
25732;DHT22;13585;50.864;4.406;2023-08-06T01:34:48;25.40;56.60
25732;DHT22;13585;50.864;4.406;2023-08-06T01:37:14;25.30;56.60
25732;DHT22;13585;50.864;4.406;2023-08-06T01:39:42;25.30;57.20
25732;DHT22;13585;50.864;4.406;2023-08-06T01:42:08;25.30;56.60
25732;DHT22;13585;50.864;4.406;2023-08-06T01:44:34;25.30;56.60
25732;DHT22;13585;50.864;4.406;2023-08-06T01:46:59;25.20;56.60
25732;DHT22;13585;50.864;4.406;2023-08-06T01:49:27;25.30;56.60
25732;DHT22;13585;50.864;4.406;2023-08-06T01:51:52;25.30;56.60
25732;DHT22;13585;50.864;4.406;2023-08-06T01:54:18;25.30;56.60
25732;DHT22;13585;50.864;4.406;2023-08-06T01:56:43;25.30;56.60
25732;DHT22;13585;50.864;4.406;2023-08-06T01:59:09;25.30;56.60
25732;DHT22;13585;50.864;4.406;2023-08-06T02:01:35;25.30;56.60
25732;DHT22;13585;50.864;4.406;2023-08-06T02:04:00;25.30;56.60
25732;DHT22;13585;50.864;4.406;2023-08-06T02:06:26;25.30;56.60
25732;DHT22;13585;50.864;4.406;2023-08-06T02:08:51;25.30;56.60
25732;DHT22;13585;50.864;4.406;2023-08-06T02:11:17;25.30;56.50
25732;DHT22;13585;50.864;4.406;2023-08-06T02:13:43;25.30;56.60
25732;DHT22;13585;50.864;4.406;2023-08-06T02:16:09;25.30;56.60
25732;DHT22;13585;50.864;4.406;2023-08-06T02:18:34;25.30;56.60
25732;DHT22;13585;50.864;4.406;2023-08-06T02:21:00;25.30;56.60
25732;DHT22;13585;50.864;4.406;2023-08-06T02:23:26;25.30;56.50
25732;DHT22;13585;50.864;4.406;2023-08-06T02:26:03;25.30;56.50
25732;DHT22;13585;50.864;4.406;2023-08-06T02:28:29;25.20;56.50
25732;DHT22;13585;50.864;4.406;2023-08-06T02:30:55;25.30;56.50
25732;DHT22;13585;50.864;4.406;2023-08-06T02:33:21;25.30;56.50
25732;DHT22;13585;50.864;4.406;2023-08-06T02:35:46;25.20;56.50
25732;DHT22;13585;50.864;4.406;2023-08-06T02:38:12;25.20;56.50
25732;DHT22;13585;50.864;4.406;2023-08-06T02:40:43;25.30;56.50
25732;DHT22;13585;50.864;4.406;2023-08-06T02:43:30;25.20;56.50
25732;DHT22;13585;50.864;4.406;2023-08-06T02:45:58;25.20;56.60
25732;DHT22;13585;50.864;4.406;2023-08-06T02:48:24;25.20;56.40
25732;DHT22;13585;50.864;4.406;2023-08-06T02:50:49;25.30;56.50
25732;DHT22;13585;50.864;4.406;2023-08-06T02:53:15;25.30;56.50
25732;DHT22;13585;50.864;4.406;2023-08-06T02:55:46;25.30;56.50
25732;DHT22;13585;50.864;4.406;2023-08-06T02:58:13;25.20;56.40
25732;DHT22;13585;50.864;4.406;2023-08-06T03:00:39;25.20;56.40
25732;DHT22;13585;50.864;4.406;2023-08-06T03:03:05;25.20;56.40
25732;DHT22;13585;50.864;4.406;2023-08-06T03:05:30;25.20;56.40
25732;DHT22;13585;50.864;4.406;2023-08-06T03:07:56;25.20;56.40
25732;DHT22;13585;50.864;4.406;2023-08-06T03:10:21;25.20;56.40
25732;DHT22;13585;50.864;4.406;2023-08-06T03:12:47;25.20;57.00
25732;DHT22;13585;50.864;4.406;2023-08-06T03:15:12;25.20;56.40
25732;DHT22;13585;50.864;4.406;2023-08-06T03:17:38;25.20;56.40
25732;DHT22;13585;50.864;4.406;2023-08-06T03:20:04;25.20;56.40
25732;DHT22;13585;50.864;4.406;2023-08-06T03:22:30;25.20;56.40
25732;DHT22;13585;50.864;4.406;2023-08-06T03:24:56;25.20;56.30
25732;DHT22;13585;50.864;4.406;2023-08-06T03:27:21;25.20;56.30
25732;DHT22;13585;50.864;4.406;2023-08-06T03:29:49;25.20;56.30
25732;DHT22;13585;50.864;4.406;2023-08-06T03:32:15;25.20;56.30
25732;DHT22;13585;50.864;4.406;2023-08-06T03:34:41;25.20;56.30
25732;DHT22;13585;50.864;4.406;2023-08-06T03:37:06;25.20;56.90
25732;DHT22;13585;50.864;4.406;2023-08-06T03:39:32;25.20;56.30
25732;DHT22;13585;50.864;4.406;2023-08-06T03:41:57;25.20;56.30
25732;DHT22;13585;50.864;4.406;2023-08-06T03:44:23;25.20;56.30
25732;DHT22;13585;50.864;4.406;2023-08-06T03:46:49;25.20;56.30
25732;DHT22;13585;50.864;4.406;2023-08-06T03:49:14;25.20;56.20
25732;DHT22;13585;50.864;4.406;2023-08-06T03:51:40;25.20;56.20
25732;DHT22;13585;50.864;4.406;2023-08-06T03:54:05;25.20;56.20
25732;DHT22;13585;50.864;4.406;2023-08-06T03:56:31;25.20;56.20
25732;DHT22;13585;50.864;4.406;2023-08-06T03:58:56;25.20;56.20
25732;DHT22;13585;50.864;4.406;2023-08-06T04:01:23;25.20;56.20
25732;DHT22;13585;50.864;4.406;2023-08-06T04:03:49;25.20;56.20
25732;DHT22;13585;50.864;4.406;2023-08-06T04:06:14;25.20;56.20
25732;DHT22;13585;50.864;4.406;2023-08-06T04:08:40;25.20;56.20
25732;DHT22;13585;50.864;4.406;2023-08-06T04:11:05;25.20;56.20
25732;DHT22;13585;50.864;4.406;2023-08-06T04:13:31;25.20;56.20
25732;DHT22;13585;50.864;4.406;2023-08-06T04:16:01;25.20;56.20
25732;DHT22;13585;50.864;4.406;2023-08-06T04:18:27;25.20;56.20
25732;DHT22;13585;50.864;4.406;2023-08-06T04:20:53;25.20;56.70
25732;DHT22;13585;50.864;4.406;2023-08-06T04:23:20;25.20;56.10
25732;DHT22;13585;50.864;4.406;2023-08-06T04:25:46;25.20;56.40
25732;DHT22;13585;50.864;4.406;2023-08-06T04:28:12;25.20;56.20
25732;DHT22;13585;50.864;4.406;2023-08-06T04:30:38;25.20;56.20
25732;DHT22;13585;50.864;4.406;2023-08-06T04:33:03;25.20;56.20
25732;DHT22;13585;50.864;4.406;2023-08-06T04:35:29;25.20;56.10
25732;DHT22;13585;50.864;4.406;2023-08-06T04:37:55;25.20;56.10
25732;DHT22;13585;50.864;4.406;2023-08-06T04:40:21;25.20;56.20
25732;DHT22;13585;50.864;4.406;2023-08-06T04:42:46;25.20;56.20
25732;DHT22;13585;50.864;4.406;2023-08-06T04:45:12;25.20;56.10
25732;DHT22;13585;50.864;4.406;2023-08-06T04:47:37;25.20;56.10
25732;DHT22;13585;50.864;4.406;2023-08-06T04:50:03;25.20;56.00
25732;DHT22;13585;50.864;4.406;2023-08-06T04:52:29;25.20;56.00
25732;DHT22;13585;50.864;4.406;2023-08-06T04:54:56;25.20;56.00
25732;DHT22;13585;50.864;4.406;2023-08-06T04:57:22;25.20;56.00
25732;DHT22;13585;50.864;4.406;2023-08-06T04:59:48;25.20;56.00
25732;DHT22;13585;50.864;4.406;2023-08-06T05:02:14;25.20;56.00
25732;DHT22;13585;50.864;4.406;2023-08-06T05:04:39;25.20;56.00
25732;DHT22;13585;50.864;4.406;2023-08-06T05:07:07;25.20;56.00
25732;DHT22;13585;50.864;4.406;2023-08-06T05:09:33;25.20;56.00
25732;DHT22;13585;50.864;4.406;2023-08-06T05:12:01;25.20;56.00
25732;DHT22;13585;50.864;4.406;2023-08-06T05:14:27;25.20;56.00
25732;DHT22;13585;50.864;4.406;2023-08-06T05:16:53;25.20;55.90
25732;DHT22;13585;50.864;4.406;2023-08-06T05:19:19;25.20;55.90
25732;DHT22;13585;50.864;4.406;2023-08-06T05:21:44;25.20;55.90
25732;DHT22;13585;50.864;4.406;2023-08-06T05:24:10;25.20;55.90
25732;DHT22;13585;50.864;4.406;2023-08-06T05:26:37;25.20;55.90
25732;DHT22;13585;50.864;4.406;2023-08-06T05:29:03;25.20;56.00
25732;DHT22;13585;50.864;4.406;2023-08-06T05:31:28;25.20;56.00
25732;DHT22;13585;50.864;4.406;2023-08-06T05:33:54;25.20;56.00
25732;DHT22;13585;50.864;4.406;2023-08-06T05:36:20;25.20;56.00
25732;DHT22;13585;50.864;4.406;2023-08-06T05:38:46;25.10;55.90
25732;DHT22;13585;50.864;4.406;2023-08-06T05:41:13;25.10;55.90
25732;DHT22;13585;50.864;4.406;2023-08-06T05:43:39;25.10;55.90
25732;DHT22;13585;50.864;4.406;2023-08-06T05:46:05;25.10;55.90
25732;DHT22;13585;50.864;4.406;2023-08-06T05:48:30;25.10;55.90
25732;DHT22;13585;50.864;4.406;2023-08-06T05:50:57;25.10;55.90
25732;DHT22;13585;50.864;4.406;2023-08-06T05:53:22;25.10;55.90
25732;DHT22;13585;50.864;4.406;2023-08-06T05:55:48;25.10;55.90
25732;DHT22;13585;50.864;4.406;2023-08-06T05:58:14;25.10;55.90
25732;DHT22;13585;50.864;4.406;2023-08-06T06:00:39;25.10;55.90
25732;DHT22;13585;50.864;4.406;2023-08-06T06:03:05;25.10;55.90
25732;DHT22;13585;50.864;4.406;2023-08-06T06:05:31;25.10;55.90
25732;DHT22;13585;50.864;4.406;2023-08-06T06:07:56;25.10;55.90
25732;DHT22;13585;50.864;4.406;2023-08-06T06:10:22;25.10;55.80
25732;DHT22;13585;50.864;4.406;2023-08-06T06:12:47;25.10;55.90
25732;DHT22;13585;50.864;4.406;2023-08-06T06:15:13;25.10;55.80
25732;DHT22;13585;50.864;4.406;2023-08-06T06:17:39;25.10;55.90
25732;DHT22;13585;50.864;4.406;2023-08-06T06:20:05;25.10;55.90
25732;DHT22;13585;50.864;4.406;2023-08-06T06:22:31;25.10;55.90
25732;DHT22;13585;50.864;4.406;2023-08-06T06:24:56;25.10;55.90
25732;DHT22;13585;50.864;4.406;2023-08-06T06:27:22;25.10;55.90
25732;DHT22;13585;50.864;4.406;2023-08-06T06:29:48;25.10;55.90
25732;DHT22;13585;50.864;4.406;2023-08-06T06:32:13;25.10;55.90
25732;DHT22;13585;50.864;4.406;2023-08-06T06:34:39;25.10;55.90
25732;DHT22;13585;50.864;4.406;2023-08-06T06:37:05;25.10;55.90
25732;DHT22;13585;50.864;4.406;2023-08-06T06:39:30;25.10;55.90
25732;DHT22;13585;50.864;4.406;2023-08-06T06:41:56;25.10;55.90
25732;DHT22;13585;50.864;4.406;2023-08-06T06:44:22;25.00;55.90
25732;DHT22;13585;50.864;4.406;2023-08-06T06:46:47;25.10;55.90
25732;DHT22;13585;50.864;4.406;2023-08-06T06:49:13;25.10;56.00
25732;DHT22;13585;50.864;4.406;2023-08-06T06:51:38;25.10;56.00
25732;DHT22;13585;50.864;4.406;2023-08-06T06:54:04;25.00;56.00
25732;DHT22;13585;50.864;4.406;2023-08-06T06:56:30;25.00;56.00
25732;DHT22;13585;50.864;4.406;2023-08-06T06:58:55;25.10;56.00
25732;DHT22;13585;50.864;4.406;2023-08-06T07:01:21;25.10;56.00
25732;DHT22;13585;50.864;4.406;2023-08-06T07:03:47;25.00;56.00
25732;DHT22;13585;50.864;4.406;2023-08-06T07:06:12;25.10;56.00
25732;DHT22;13585;50.864;4.406;2023-08-06T07:08:38;25.00;56.00
25732;DHT22;13585;50.864;4.406;2023-08-06T07:11:05;25.00;56.50
25732;DHT22;13585;50.864;4.406;2023-08-06T07:13:31;25.00;55.90
25732;DHT22;13585;50.864;4.406;2023-08-06T07:15:57;25.00;55.90
25732;DHT22;13585;50.864;4.406;2023-08-06T07:18:23;25.00;55.90
25732;DHT22;13585;50.864;4.406;2023-08-06T07:20:52;25.00;55.90
25732;DHT22;13585;50.864;4.406;2023-08-06T07:23:20;25.00;56.00
25732;DHT22;13585;50.864;4.406;2023-08-06T07:25:47;25.00;55.90
25732;DHT22;13585;50.864;4.406;2023-08-06T07:28:14;25.00;56.00
25732;DHT22;13585;50.864;4.406;2023-08-06T07:30:42;25.00;55.90
25732;DHT22;13585;50.864;4.406;2023-08-06T07:33:08;24.90;55.90
25732;DHT22;13585;50.864;4.406;2023-08-06T07:35:34;25.00;56.00
25732;DHT22;13585;50.864;4.406;2023-08-06T07:38:00;25.00;55.90
25732;DHT22;13585;50.864;4.406;2023-08-06T07:40:27;25.00;55.90
25732;DHT22;13585;50.864;4.406;2023-08-06T07:42:53;25.00;55.90
25732;DHT22;13585;50.864;4.406;2023-08-06T07:45:19;25.00;55.90
25732;DHT22;13585;50.864;4.406;2023-08-06T07:47:44;25.00;55.90
25732;DHT22;13585;50.864;4.406;2023-08-06T07:50:10;25.00;55.90
25732;DHT22;13585;50.864;4.406;2023-08-06T07:52:36;24.90;55.90
25732;DHT22;13585;50.864;4.406;2023-08-06T07:55:02;25.00;56.00
25732;DHT22;13585;50.864;4.406;2023-08-06T07:57:33;25.00;56.00
25732;DHT22;13585;50.864;4.406;2023-08-06T08:00:00;24.90;55.90
25732;DHT22;13585;50.864;4.406;2023-08-06T08:02:25;24.90;55.90
25732;DHT22;13585;50.864;4.406;2023-08-06T08:04:51;24.90;56.00
25732;DHT22;13585;50.864;4.406;2023-08-06T08:07:16;24.90;56.00
25732;DHT22;13585;50.864;4.406;2023-08-06T08:09:42;24.90;56.00
25732;DHT22;13585;50.864;4.406;2023-08-06T08:12:08;24.90;56.10
25732;DHT22;13585;50.864;4.406;2023-08-06T08:14:33;24.90;56.10
25732;DHT22;13585;50.864;4.406;2023-08-06T08:17:04;24.90;56.10
25732;DHT22;13585;50.864;4.406;2023-08-06T08:19:31;24.90;56.70
25732;DHT22;13585;50.864;4.406;2023-08-06T08:21:57;24.90;56.10
25732;DHT22;13585;50.864;4.406;2023-08-06T08:24:23;24.90;56.10
25732;DHT22;13585;50.864;4.406;2023-08-06T08:26:52;24.90;56.10
25732;DHT22;13585;50.864;4.406;2023-08-06T08:29:21;24.90;56.10
25732;DHT22;13585;50.864;4.406;2023-08-06T08:31:47;24.90;56.10
25732;DHT22;13585;50.864;4.406;2023-08-06T08:34:15;24.90;56.10
25732;DHT22;13585;50.864;4.406;2023-08-06T08:36:40;24.90;56.10
25732;DHT22;13585;50.864;4.406;2023-08-06T08:39:06;24.90;56.00
25732;DHT22;13585;50.864;4.406;2023-08-06T08:41:33;24.90;56.00
25732;DHT22;13585;50.864;4.406;2023-08-06T08:43:59;24.90;56.00
25732;DHT22;13585;50.864;4.406;2023-08-06T08:46:32;24.90;56.00
25732;DHT22;13585;50.864;4.406;2023-08-06T08:48:59;24.90;56.10
25732;DHT22;13585;50.864;4.406;2023-08-06T08:51:28;24.90;56.00
25732;DHT22;13585;50.864;4.406;2023-08-06T08:53:56;24.90;56.00
25732;DHT22;13585;50.864;4.406;2023-08-06T08:56:23;24.90;56.10
25732;DHT22;13585;50.864;4.406;2023-08-06T08:58:48;24.90;56.10
25732;DHT22;13585;50.864;4.406;2023-08-06T09:01:15;24.90;56.10
25732;DHT22;13585;50.864;4.406;2023-08-06T09:03:42;24.90;56.10
25732;DHT22;13585;50.864;4.406;2023-08-06T09:06:11;24.90;56.20
25732;DHT22;13585;50.864;4.406;2023-08-06T09:08:41;24.90;56.20
25732;DHT22;13585;50.864;4.406;2023-08-06T09:11:09;24.90;56.20
25732;DHT22;13585;50.864;4.406;2023-08-06T09:13:37;24.90;56.20
25732;DHT22;13585;50.864;4.406;2023-08-06T09:16:03;24.90;56.20
25732;DHT22;13585;50.864;4.406;2023-08-06T09:18:32;24.90;56.20
25732;DHT22;13585;50.864;4.406;2023-08-06T09:20:58;24.90;56.20
25732;DHT22;13585;50.864;4.406;2023-08-06T09:23:32;24.90;56.20
25732;DHT22;13585;50.864;4.406;2023-08-06T09:25:59;24.80;56.20
25732;DHT22;13585;50.864;4.406;2023-08-06T09:28:36;24.90;56.10
25732;DHT22;13585;50.864;4.406;2023-08-06T09:31:03;24.80;56.20
25732;DHT22;13585;50.864;4.406;2023-08-06T09:33:29;24.90;56.70
25732;DHT22;13585;50.864;4.406;2023-08-06T09:35:55;24.90;56.10
25732;DHT22;13585;50.864;4.406;2023-08-06T09:38:20;24.90;56.10
25732;DHT22;13585;50.864;4.406;2023-08-06T09:40:47;24.90;56.10
25732;DHT22;13585;50.864;4.406;2023-08-06T09:43:12;24.90;56.10
25732;DHT22;13585;50.864;4.406;2023-08-06T09:45:39;24.90;56.10
25732;DHT22;13585;50.864;4.406;2023-08-06T09:48:08;24.90;56.10
25732;DHT22;13585;50.864;4.406;2023-08-06T09:50:36;24.90;56.10
25732;DHT22;13585;50.864;4.406;2023-08-06T09:53:03;24.90;56.10
25732;DHT22;13585;50.864;4.406;2023-08-06T09:55:30;24.90;56.10
25732;DHT22;13585;50.864;4.406;2023-08-06T09:57:55;24.90;56.10
25732;DHT22;13585;50.864;4.406;2023-08-06T10:00:22;24.80;56.00
25732;DHT22;13585;50.864;4.406;2023-08-06T10:02:49;24.90;56.10
25732;DHT22;13585;50.864;4.406;2023-08-06T10:05:17;24.80;56.00
25732;DHT22;13585;50.864;4.406;2023-08-06T10:07:45;24.90;56.10
25732;DHT22;13585;50.864;4.406;2023-08-06T10:10:11;24.90;56.10
25732;DHT22;13585;50.864;4.406;2023-08-06T10:12:46;24.90;56.10
25732;DHT22;13585;50.864;4.406;2023-08-06T10:15:16;24.80;56.10
25732;DHT22;13585;50.864;4.406;2023-08-06T10:17:43;24.80;56.00
25732;DHT22;13585;50.864;4.406;2023-08-06T10:20:11;24.90;56.10
25732;DHT22;13585;50.864;4.406;2023-08-06T10:22:43;24.90;56.10
25732;DHT22;13585;50.864;4.406;2023-08-06T10:25:10;24.90;56.10
25732;DHT22;13585;50.864;4.406;2023-08-06T10:32:54;24.80;56.10
25732;DHT22;13585;50.864;4.406;2023-08-06T10:35:41;24.90;56.00
25732;DHT22;13585;50.864;4.406;2023-08-06T10:38:12;24.80;56.10
25732;DHT22;13585;50.864;4.406;2023-08-06T10:43:36;24.80;56.10
25732;DHT22;13585;50.864;4.406;2023-08-06T10:46:27;24.80;56.70
25732;DHT22;13585;50.864;4.406;2023-08-06T10:48:54;24.80;56.10
25732;DHT22;13585;50.864;4.406;2023-08-06T10:51:20;24.80;56.00
25732;DHT22;13585;50.864;4.406;2023-08-06T10:53:48;24.80;56.00
25732;DHT22;13585;50.864;4.406;2023-08-06T10:56:18;24.80;56.10
25732;DHT22;13585;50.864;4.406;2023-08-06T10:58:45;24.80;56.00
25732;DHT22;13585;50.864;4.406;2023-08-06T11:01:11;24.80;56.10
25732;DHT22;13585;50.864;4.406;2023-08-06T11:03:37;24.80;56.10
25732;DHT22;13585;50.864;4.406;2023-08-06T11:06:03;24.80;56.10
25732;DHT22;13585;50.864;4.406;2023-08-06T11:08:34;24.80;56.10
25732;DHT22;13585;50.864;4.406;2023-08-06T11:11:15;24.80;56.20
25732;DHT22;13585;50.864;4.406;2023-08-06T11:13:45;24.80;56.20
25732;DHT22;13585;50.864;4.406;2023-08-06T11:16:15;24.80;56.10
25732;DHT22;13585;50.864;4.406;2023-08-06T11:18:42;24.80;56.00
25732;DHT22;13585;50.864;4.406;2023-08-06T11:21:08;24.80;56.00
25732;DHT22;13585;50.864;4.406;2023-08-06T11:23:34;24.80;56.10
25732;DHT22;13585;50.864;4.406;2023-08-06T11:26:01;24.80;56.10
25732;DHT22;13585;50.864;4.406;2023-08-06T11:28:27;24.80;56.10
25732;DHT22;13585;50.864;4.406;2023-08-06T11:30:53;24.80;56.10
25732;DHT22;13585;50.864;4.406;2023-08-06T11:33:24;24.80;56.10
25732;DHT22;13585;50.864;4.406;2023-08-06T11:35:55;24.80;56.20
25732;DHT22;13585;50.864;4.406;2023-08-06T11:38:21;24.80;56.20
25732;DHT22;13585;50.864;4.406;2023-08-06T11:40:50;24.80;56.20
25732;DHT22;13585;50.864;4.406;2023-08-06T11:43:18;24.80;56.20
25732;DHT22;13585;50.864;4.406;2023-08-06T11:45:44;24.80;56.20
25732;DHT22;13585;50.864;4.406;2023-08-06T11:48:10;24.80;56.20
25732;DHT22;13585;50.864;4.406;2023-08-06T11:50:37;24.80;56.20
25732;DHT22;13585;50.864;4.406;2023-08-06T11:53:04;24.80;56.20
25732;DHT22;13585;50.864;4.406;2023-08-06T11:55:30;24.80;56.20
25732;DHT22;13585;50.864;4.406;2023-08-06T11:57:56;24.80;56.20
25732;DHT22;13585;50.864;4.406;2023-08-06T12:00:25;24.80;56.30
25732;DHT22;13585;50.864;4.406;2023-08-06T12:02:52;24.80;56.30
25732;DHT22;13585;50.864;4.406;2023-08-06T12:05:19;24.80;56.20
25732;DHT22;13585;50.864;4.406;2023-08-06T12:07:55;24.80;56.30
25732;DHT22;13585;50.864;4.406;2023-08-06T12:10:22;24.80;56.30
25732;DHT22;13585;50.864;4.406;2023-08-06T12:12:49;24.80;56.20
25732;DHT22;13585;50.864;4.406;2023-08-06T12:15:15;24.80;56.30
25732;DHT22;13585;50.864;4.406;2023-08-06T12:17:41;24.80;56.30
25732;DHT22;13585;50.864;4.406;2023-08-06T12:20:08;24.80;56.30
25732;DHT22;13585;50.864;4.406;2023-08-06T12:22:34;24.80;56.30
25732;DHT22;13585;50.864;4.406;2023-08-06T12:25:04;24.80;56.40
25732;DHT22;13585;50.864;4.406;2023-08-06T12:27:33;24.80;56.40
25732;DHT22;13585;50.864;4.406;2023-08-06T12:29:59;24.80;56.40
25732;DHT22;13585;50.864;4.406;2023-08-06T12:32:25;24.80;56.40
25732;DHT22;13585;50.864;4.406;2023-08-06T12:34:52;24.80;56.40
25732;DHT22;13585;50.864;4.406;2023-08-06T12:37:18;24.80;56.40
25732;DHT22;13585;50.864;4.406;2023-08-06T12:39:43;24.80;56.40
25732;DHT22;13585;50.864;4.406;2023-08-06T12:42:09;24.70;56.40
25732;DHT22;13585;50.864;4.406;2023-08-06T12:44:36;24.80;56.40
25732;DHT22;13585;50.864;4.406;2023-08-06T12:47:01;24.70;56.40
25732;DHT22;13585;50.864;4.406;2023-08-06T12:49:27;24.70;56.40
25732;DHT22;13585;50.864;4.406;2023-08-06T12:51:54;24.70;56.40
25732;DHT22;13585;50.864;4.406;2023-08-06T12:54:23;24.70;56.40
25732;DHT22;13585;50.864;4.406;2023-08-06T12:56:49;24.70;56.40
25732;DHT22;13585;50.864;4.406;2023-08-06T12:59:16;24.70;56.40
25732;DHT22;13585;50.864;4.406;2023-08-06T13:01:43;24.70;56.50
25732;DHT22;13585;50.864;4.406;2023-08-06T13:04:09;24.70;56.40
25732;DHT22;13585;50.864;4.406;2023-08-06T13:06:44;24.70;56.40
25732;DHT22;13585;50.864;4.406;2023-08-06T13:09:22;24.70;56.40
25732;DHT22;13585;50.864;4.406;2023-08-06T13:11:48;24.70;56.50
25732;DHT22;13585;50.864;4.406;2023-08-06T13:14:30;24.80;56.50
25732;DHT22;13585;50.864;4.406;2023-08-06T13:16:59;24.70;56.50
25732;DHT22;13585;50.864;4.406;2023-08-06T13:19:24;24.70;56.40
25732;DHT22;13585;50.864;4.406;2023-08-06T13:22:03;24.70;56.40
25732;DHT22;13585;50.864;4.406;2023-08-06T13:24:34;24.70;56.40
25732;DHT22;13585;50.864;4.406;2023-08-06T13:27:00;24.80;56.40
25732;DHT22;13585;50.864;4.406;2023-08-06T13:29:27;24.80;56.40
25732;DHT22;13585;50.864;4.406;2023-08-06T13:31:53;24.80;56.30
25732;DHT22;13585;50.864;4.406;2023-08-06T13:34:19;24.80;56.40
25732;DHT22;13585;50.864;4.406;2023-08-06T13:36:44;24.80;56.30
25732;DHT22;13585;50.864;4.406;2023-08-06T13:39:10;24.80;57.00
25732;DHT22;13585;50.864;4.406;2023-08-06T13:41:38;24.80;56.40
25732;DHT22;13585;50.864;4.406;2023-08-06T13:44:06;24.80;56.40
25732;DHT22;13585;50.864;4.406;2023-08-06T13:46:32;24.80;56.40
25732;DHT22;13585;50.864;4.406;2023-08-06T13:49:00;24.80;56.40
25732;DHT22;13585;50.864;4.406;2023-08-06T13:51:31;24.80;56.40
25732;DHT22;13585;50.864;4.406;2023-08-06T13:54:12;24.80;56.50
25732;DHT22;13585;50.864;4.406;2023-08-06T13:56:46;24.80;56.40
25732;DHT22;13585;50.864;4.406;2023-08-06T13:59:12;24.70;56.40
25732;DHT22;13585;50.864;4.406;2023-08-06T14:09:03;24.80;56.30
25732;DHT22;13585;50.864;4.406;2023-08-06T14:11:47;24.70;56.30
25732;DHT22;13585;50.864;4.406;2023-08-06T14:14:34;24.80;56.40
25732;DHT22;13585;50.864;4.406;2023-08-06T14:17:23;24.80;56.40
25732;DHT22;13585;50.864;4.406;2023-08-06T14:19:54;24.70;56.50
25732;DHT22;13585;50.864;4.406;2023-08-06T14:22:20;24.70;56.40
25732;DHT22;13585;50.864;4.406;2023-08-06T14:24:48;24.80;56.40
25732;DHT22;13585;50.864;4.406;2023-08-06T14:27:17;24.80;56.50
25732;DHT22;13585;50.864;4.406;2023-08-06T14:29:42;24.70;56.50
25732;DHT22;13585;50.864;4.406;2023-08-06T14:32:08;24.80;56.50
25732;DHT22;13585;50.864;4.406;2023-08-06T14:34:34;24.70;56.50
25732;DHT22;13585;50.864;4.406;2023-08-06T14:37:00;24.80;56.50
25732;DHT22;13585;50.864;4.406;2023-08-06T14:39:26;24.80;56.50
25732;DHT22;13585;50.864;4.406;2023-08-06T14:41:51;24.70;56.50
25732;DHT22;13585;50.864;4.406;2023-08-06T14:44:17;24.80;56.50
25732;DHT22;13585;50.864;4.406;2023-08-06T14:46:43;24.80;56.50
25732;DHT22;13585;50.864;4.406;2023-08-06T14:49:08;24.80;56.50
25732;DHT22;13585;50.864;4.406;2023-08-06T14:51:34;24.80;56.50
25732;DHT22;13585;50.864;4.406;2023-08-06T14:54:03;24.80;56.50
25732;DHT22;13585;50.864;4.406;2023-08-06T14:56:31;24.70;56.50
25732;DHT22;13585;50.864;4.406;2023-08-06T14:58:57;24.70;56.50
25732;DHT22;13585;50.864;4.406;2023-08-06T15:01:22;24.70;56.50
25732;DHT22;13585;50.864;4.406;2023-08-06T15:03:48;24.70;56.50
25732;DHT22;13585;50.864;4.406;2023-08-06T15:06:19;24.70;56.50
25732;DHT22;13585;50.864;4.406;2023-08-06T15:08:44;24.70;56.50
25732;DHT22;13585;50.864;4.406;2023-08-06T15:11:13;24.80;56.60
25732;DHT22;13585;50.864;4.406;2023-08-06T15:14:05;24.80;56.60
25732;DHT22;13585;50.864;4.406;2023-08-06T15:16:48;24.70;56.60
25732;DHT22;13585;50.864;4.406;2023-08-06T15:19:16;24.70;56.60
25732;DHT22;13585;50.864;4.406;2023-08-06T15:21:41;24.80;56.50
25732;DHT22;13585;50.864;4.406;2023-08-06T15:24:08;24.80;56.50
25732;DHT22;13585;50.864;4.406;2023-08-06T15:26:34;24.80;56.50
25732;DHT22;13585;50.864;4.406;2023-08-06T15:29:00;24.70;56.50
25732;DHT22;13585;50.864;4.406;2023-08-06T15:31:45;24.80;56.50
25732;DHT22;13585;50.864;4.406;2023-08-06T15:38:08;24.80;56.50
25732;DHT22;13585;50.864;4.406;2023-08-06T15:40:34;24.80;56.30
25732;DHT22;13585;50.864;4.406;2023-08-06T15:43:03;24.80;56.40
25732;DHT22;13585;50.864;4.406;2023-08-06T15:45:40;24.80;56.50
25732;DHT22;13585;50.864;4.406;2023-08-06T15:48:06;24.70;56.60
25732;DHT22;13585;50.864;4.406;2023-08-06T15:50:44;24.70;56.50
25732;DHT22;13585;50.864;4.406;2023-08-06T15:53:11;24.70;56.70